Time;durP1;ratioP1;P1;durP2;ratioP2;P2;SDS_P1;SDS_P2;PMS_P1;PMS_P2;Temp;Humidity;BMP_temperature;BMP_pressure;BME280_temperature;BME280_humidity;BME280_pressure;Samples;Min_cycle;Max_cycle;Signal;HPM_P1;HPM_P2
2023/08/26 00:03:07;;;;;;;6.47;3.87;;;;;;;;;;8267269;28;20038;-58
2023/08/26 00:07:08;;;;;;;8.43;4.17;;;;;;;;;;8269998;28;20287;-58
2023/08/26 00:11:08;;;;;;;5.93;3.70;;;;;;;;;;8272134;28;21469;-58
2023/08/26 00:15:08;;;;;;;7.23;3.90;;;;;;;;;;8269608;28;20037;-58
2023/08/26 00:19:08;;;;;;;5.35;4.15;;;;;;;;;;8270478;28;20145;-58
2023/08/26 00:23:08;;;;;;;7.13;3.77;;;;;;;;;;8269577;28;20898;-59
2023/08/26 00:27:09;;;;;;;5.25;3.67;;;;;;;;;;8270032;28;20110;-58
2023/08/26 00:31:09;;;;;;;5.93;4.20;;;;;;;;;;8268674;28;20084;-58
2023/08/26 00:35:09;;;;;;;5.90;3.65;;;;;;;;;;8270696;28;20026;-58
2023/08/26 00:39:10;;;;;;;7.37;4.10;;;;;;;;;;8270590;28;20132;-58
2023/08/26 00:43:10;;;;;;;4.30;3.90;;;;;;;;;;8270477;28;20400;-58
2023/08/26 00:47:10;;;;;;;10.95;4.30;;;;;;;;;;8269049;28;20061;-58
2023/08/26 00:51:10;;;;;;;7.32;4.05;;;;;;;;;;8269630;28;20026;-58
2023/08/26 00:55:11;;;;;;;6.33;3.60;;;;;;;;;;8266628;28;20029;-57
2023/08/26 00:59:11;;;;;;;7.60;3.70;;;;;;;;;;8267285;28;20029;-57
2023/08/26 01:03:11;;;;;;;7.77;3.70;;;;;;;;;;8265815;28;20311;-58
2023/08/26 01:07:12;;;;;;;7.18;3.50;;;;;;;;;;8268922;28;20723;-58
2023/08/26 01:11:12;;;;;;;6.05;3.88;;;;;;;;;;8267438;28;20091;-58
2023/08/26 01:15:13;;;;;;;10.33;3.90;;;;;;;;;;8268640;28;20041;-58
2023/08/26 01:19:33;;;;;;;7.43;3.75;;;;;;;;;;8267747;28;20339;-59
2023/08/26 01:23:41;;;;;;;6.43;3.65;;;;;;;;;;8267895;28;20037;-58
2023/08/26 01:27:41;;;;;;;7.50;4.32;;;;;;;;;;8268986;28;20017;-58
2023/08/26 01:31:42;;;;;;;8.35;4.00;;;;;;;;;;8271365;28;20087;-58
2023/08/26 01:35:45;;;;;;;5.63;3.60;;;;;;;;;;8266385;28;20598;-59
2023/08/26 01:39:46;;;;;;;7.80;3.83;;;;;;;;;;8269092;28;20030;-58
2023/08/26 01:43:47;;;;;;;9.35;3.45;;;;;;;;;;8265426;28;20038;-59
2023/08/26 01:47:47;;;;;;;5.47;3.47;;;;;;;;;;8269762;28;20148;-58
2023/08/26 01:51:47;;;;;;;7.03;3.70;;;;;;;;;;8269035;28;20276;-58
2023/08/26 01:55:47;;;;;;;8.43;4.05;;;;;;;;;;8264821;28;20026;-58
2023/08/26 01:59:48;;;;;;;5.95;3.60;;;;;;;;;;8268285;28;20033;-58
2023/08/26 02:03:48;;;;;;;8.20;3.60;;;;;;;;;;8271719;28;20042;-58
2023/08/26 02:07:48;;;;;;;11.60;4.10;;;;;;;;;;8266083;28;20053;-58
2023/08/26 02:11:48;;;;;;;5.83;3.67;;;;;;;;;;8265758;28;20032;-59
2023/08/26 02:15:48;;;;;;;8.48;3.85;;;;;;;;;;8267895;28;20042;-58
2023/08/26 02:19:49;;;;;;;7.47;3.42;;;;;;;;;;8267570;28;20592;-58
2023/08/26 02:23:49;;;;;;;5.07;3.03;;;;;;;;;;8267583;28;20045;-58
2023/08/26 02:27:49;;;;;;;5.07;3.23;;;;;;;;;;8264085;28;20025;-57
2023/08/26 02:31:49;;;;;;;6.53;3.20;;;;;;;;;;8265816;28;20156;-58
2023/08/26 02:35:49;;;;;;;4.50;3.00;;;;;;;;;;8265156;28;20033;-58
2023/08/26 02:39:50;;;;;;;5.67;3.17;;;;;;;;;;8263365;28;20245;-58
2023/08/26 02:43:50;;;;;;;6.32;3.28;;;;;;;;;;8270228;28;21455;-58
2023/08/26 02:47:50;;;;;;;7.32;3.60;;;;;;;;;;8268420;28;20068;-59
2023/08/26 02:51:50;;;;;;;7.05;4.05;;;;;;;;;;8266556;28;20026;-58
2023/08/26 02:55:51;;;;;;;5.80;3.30;;;;;;;;;;8266647;28;20868;-59
2023/08/26 02:59:51;;;;;;;7.13;3.45;;;;;;;;;;8267516;28;20041;-59
2023/08/26 03:03:51;;;;;;;6.10;3.20;;;;;;;;;;8265117;28;20495;-58
2023/08/26 03:07:51;;;;;;;8.30;3.40;;;;;;;;;;8267298;28;20493;-58
2023/08/26 03:11:51;;;;;;;3.90;3.10;;;;;;;;;;8268523;28;20855;-59
2023/08/26 03:15:52;;;;;;;4.97;2.80;;;;;;;;;;8268541;28;20045;-58
2023/08/26 03:19:52;;;;;;;6.73;2.67;;;;;;;;;;8268871;28;20087;-59
2023/08/26 03:23:52;;;;;;;5.53;2.40;;;;;;;;;;8267460;28;20343;-59
2023/08/26 03:27:52;;;;;;;3.55;2.05;;;;;;;;;;8270166;28;20128;-60
2023/08/26 03:31:53;;;;;;;5.28;2.08;;;;;;;;;;8274227;28;20144;-59
2023/08/26 03:35:53;;;;;;;9.77;2.30;;;;;;;;;;8271186;28;20104;-59
2023/08/26 03:39:53;;;;;;;3.05;1.90;;;;;;;;;;8266814;28;20029;-60
2023/08/26 03:43:53;;;;;;;7.00;2.03;;;;;;;;;;8272542;28;20026;-59
2023/08/26 03:47:53;;;;;;;3.93;2.20;;;;;;;;;;8270408;28;20709;-59
2023/08/26 03:51:54;;;;;;;5.65;2.10;;;;;;;;;;8272461;28;20028;-58
2023/08/26 03:55:54;;;;;;;6.00;2.30;;;;;;;;;;8271353;28;20141;-58
2023/08/26 03:59:54;;;;;;;3.43;2.23;;;;;;;;;;8270435;28;20111;-58
2023/08/26 04:03:54;;;;;;;5.63;2.20;;;;;;;;;;8272124;28;20300;-58
2023/08/26 04:07:55;;;;;;;2.40;2.00;;;;;;;;;;8272723;28;20415;-58
2023/08/26 04:11:55;;;;;;;5.20;2.55;;;;;;;;;;8271239;28;20276;-58
2023/08/26 04:15:56;;;;;;;2.65;2.00;;;;;;;;;;8272122;28;20124;-58
2023/08/26 04:19:59;;;;;;;7.65;2.25;;;;;;;;;;8269236;28;20068;-59
2023/08/26 04:23:59;;;;;;;6.90;2.20;;;;;;;;;;8272530;28;20688;-60
2023/08/26 04:27:59;;;;;;;3.72;1.98;;;;;;;;;;8269779;28;20025;-58
2023/08/26 04:31:59;;;;;;;3.13;1.90;;;;;;;;;;8271100;28;20046;-60
2023/08/26 04:36:00;;;;;;;2.78;1.58;;;;;;;;;;8272359;28;20032;-58
2023/08/26 04:40:03;;;;;;;2.33;1.60;;;;;;;;;;8267536;28;20024;-57
2023/08/26 04:44:04;;;;;;;2.33;1.30;;;;;;;;;;8273017;28;20041;-58
2023/08/26 04:48:05;;;;;;;8.18;1.60;;;;;;;;;;8267458;28;20136;-57
2023/08/26 04:52:05;;;;;;;2.58;1.60;;;;;;;;;;8270222;28;20033;-57
2023/08/26 04:56:05;;;;;;;4.03;1.60;;;;;;;;;;8272126;28;20017;-59
2023/08/26 05:00:10;;;;;;;3.70;1.60;;;;;;;;;;8269398;28;20030;-58
2023/08/26 05:04:11;;;;;;;1.83;1.30;;;;;;;;;;8268085;28;20022;-56
2023/08/26 05:08:11;;;;;;;3.60;1.67;;;;;;;;;;8271616;28;20696;-58
2023/08/26 05:12:11;;;;;;;2.83;1.60;;;;;;;;;;8269444;28;20037;-57
2023/08/26 05:16:11;;;;;;;4.27;1.40;;;;;;;;;;8269670;28;20132;-57
2023/08/26 05:20:11;;;;;;;2.03;1.20;;;;;;;;;;8270965;28;21244;-57
2023/08/26 05:24:12;;;;;;;3.37;1.40;;;;;;;;;;8270539;28;20033;-57
2023/08/26 05:28:13;;;;;;;3.10;1.30;;;;;;;;;;8268901;28;20018;-58
2023/08/26 05:32:13;;;;;;;3.58;1.30;;;;;;;;;;8271023;28;20759;-57
2023/08/26 05:36:13;;;;;;;4.38;1.30;;;;;;;;;;8268500;28;20033;-57
2023/08/26 05:40:14;;;;;;;1.30;1.17;;;;;;;;;;8266658;28;20428;-57
2023/08/26 05:44:14;;;;;;;4.28;1.10;;;;;;;;;;8270646;28;20256;-57
2023/08/26 05:48:14;;;;;;;2.47;1.00;;;;;;;;;;8266747;28;20048;-57
2023/08/26 05:52:14;;;;;;;2.10;1.17;;;;;;;;;;8269878;28;20280;-58
2023/08/26 05:56:15;;;;;;;3.05;1.10;;;;;;;;;;8267659;28;20060;-57
2023/08/26 06:00:15;;;;;;;3.45;1.23;;;;;;;;;;8266131;28;20021;-57
2023/08/26 06:04:15;;;;;;;2.28;1.10;;;;;;;;;;8269713;28;20057;-58
2023/08/26 06:08:15;;;;;;;1.93;1.13;;;;;;;;;;8267243;28;20017;-57
2023/08/26 06:12:16;;;;;;;2.63;1.13;;;;;;;;;;8265403;28;20033;-57
2023/08/26 06:16:19;;;;;;;1.92;1.25;;;;;;;;;;8266367;28;20065;-57
2023/08/26 06:20:19;;;;;;;2.67;1.40;;;;;;;;;;8266297;28;20029;-57
2023/08/26 06:24:19;;;;;;;1.88;1.25;;;;;;;;;;8267308;28;20037;-57
2023/08/26 06:28:20;;;;;;;3.20;1.30;;;;;;;;;;8271478;28;20080;-57
2023/08/26 06:32:20;;;;;;;4.35;1.20;;;;;;;;;;8267576;28;20064;-59
2023/08/26 06:36:21;;;;;;;2.58;1.30;;;;;;;;;;8269666;28;20793;-57
2023/08/26 06:40:21;;;;;;;4.37;1.40;;;;;;;;;;8267581;28;20038;-58
2023/08/26 06:44:21;;;;;;;2.28;1.17;;;;;;;;;;8267256;28;20281;-58
2023/08/26 06:48:21;;;;;;;1.73;1.38;;;;;;;;;;8267001;28;20040;-58
2023/08/26 06:52:22;;;;;;;2.15;1.17;;;;;;;;;;8263071;28;20025;-59
2023/08/26 06:56:22;;;;;;;2.50;1.00;;;;;;;;;;8259143;28;20141;-58
2023/08/26 07:00:22;;;;;;;3.42;1.00;;;;;;;;;;8260888;28;20875;-58
2023/08/26 07:04:24;;;;;;;2.88;1.10;;;;;;;;;;8260590;28;20585;-58
2023/08/26 07:08:24;;;;;;;5.30;1.00;;;;;;;;;;8267360;28;20388;-57
2023/08/26 07:12:24;;;;;;;0.93;0.80;;;;;;;;;;8263336;28;20118;-58
2023/08/26 07:16:25;;;;;;;1.45;0.90;;;;;;;;;;8256607;28;20049;-58
2023/08/26 07:20:25;;;;;;;1.48;0.85;;;;;;;;;;8262996;28;20017;-58
2023/08/26 07:24:25;;;;;;;1.63;0.95;;;;;;;;;;8263330;28;20350;-58
2023/08/26 07:28:26;;;;;;;1.33;0.70;;;;;;;;;;8263481;28;20435;-58
2023/08/26 07:32:26;;;;;;;4.22;0.95;;;;;;;;;;8263400;28;20041;-58
2023/08/26 07:36:26;;;;;;;3.33;0.93;;;;;;;;;;8264568;28;20025;-58
2023/08/26 07:40:26;;;;;;;0.88;0.75;;;;;;;;;;8264454;28;20056;-58
2023/08/26 07:44:26;;;;;;;2.03;0.85;;;;;;;;;;8264539;28;20066;-58
2023/08/26 07:48:27;;;;;;;2.20;0.93;;;;;;;;;;8263264;28;20040;-58
2023/08/26 07:52:27;;;;;;;1.33;0.77;;;;;;;;;;8264529;28;20037;-58
2023/08/26 07:56:27;;;;;;;1.50;0.90;;;;;;;;;;8263993;28;20168;-58
2023/08/26 08:00:27;;;;;;;1.02;0.80;;;;;;;;;;8263441;28;20041;-57
2023/08/26 08:04:27;;;;;;;2.45;0.80;;;;;;;;;;8262029;28;20109;-58
2023/08/26 08:08:27;;;;;;;2.90;0.90;;;;;;;;;;8262847;28;20096;-58
2023/08/26 08:12:27;;;;;;;3.17;0.98;;;;;;;;;;8259754;28;20469;-59
2023/08/26 08:16:28;;;;;;;1.02;0.90;;;;;;;;;;8263705;28;20164;-58
2023/08/26 08:20:30;;;;;;;1.30;0.80;;;;;;;;;;8262083;28;20457;-58
2023/08/26 08:24:30;;;;;;;;;;;;;;;;;;8260420;28;20046;-58
2023/08/26 08:28:30;;;;;;;1.88;0.75;;;;;;;;;;8264128;28;19916;-57
2023/08/26 08:32:31;;;;;;;1.10;0.73;;;;;;;;;;8259319;28;20138;-58
2023/08/26 08:36:31;;;;;;;1.00;0.70;;;;;;;;;;8261983;28;20029;-58
2023/08/26 08:40:32;;;;;;;1.48;0.80;;;;;;;;;;8261584;28;20032;-58
2023/08/26 08:44:33;;;;;;;1.25;0.80;;;;;;;;;;8260813;28;20021;-58
2023/08/26 08:48:34;;;;;;;2.45;0.80;;;;;;;;;;8262975;28;20071;-58
2023/08/26 08:52:34;;;;;;;1.20;0.80;;;;;;;;;;8260699;28;20026;-57
2023/08/26 08:56:35;;;;;;;1.58;0.85;;;;;;;;;;8262473;28;20026;-58
2023/08/26 09:00:35;;;;;;;1.52;0.90;;;;;;;;;;8270985;28;20045;-58
2023/08/26 09:04:36;;;;;;;2.17;0.80;;;;;;;;;;8270105;28;20028;-58
2023/08/26 09:08:36;;;;;;;0.70;0.70;;;;;;;;;;8269837;28;20072;-58
2023/08/26 09:12:37;;;;;;;2.05;0.80;;;;;;;;;;8269474;28;20881;-58
2023/08/26 09:16:38;;;;;;;1.27;0.80;;;;;;;;;;8264705;28;20046;-56
2023/08/26 09:20:39;;;;;;;1.27;0.80;;;;;;;;;;8271978;28;20052;-58
2023/08/26 09:24:41;;;;;;;1.33;0.90;;;;;;;;;;8276166;28;20064;-56
2023/08/26 09:28:47;;;;;;;0.95;0.70;;;;;;;;;;8267020;28;20117;-58
2023/08/26 09:32:49;;;;;;;1.13;1.10;;;;;;;;;;8267147;28;20045;-57
2023/08/26 09:36:49;;;;;;;1.33;0.80;;;;;;;;;;8269641;28;20033;-57
2023/08/26 09:40:54;;;;;;;1.58;0.90;;;;;;;;;;8269003;28;20196;-58
2023/08/26 09:44:57;;;;;;;1.73;1.05;;;;;;;;;;8267871;28;20038;-57
2023/08/26 09:48:58;;;;;;;0.90;0.80;;;;;;;;;;8268721;28;20103;-57
2023/08/26 09:52:58;;;;;;;2.13;1.20;;;;;;;;;;8265340;28;20037;-57
2023/08/26 09:56:58;;;;;;;1.83;0.90;;;;;;;;;;8269640;28;20060;-57
2023/08/26 10:01:01;;;;;;;1.70;0.90;;;;;;;;;;8267582;28;20049;-57
2023/08/26 10:05:04;;;;;;;1.30;0.80;;;;;;;;;;8257484;28;20494;-57
2023/08/26 10:09:05;;;;;;;;;;;;;;;;;;8264509;28;20835;-58
2023/08/26 10:13:06;;;;;;;2.42;0.85;;;;;;;;;;8265436;28;20289;-59
2023/08/26 10:17:07;;;;;;;1.25;0.80;;;;;;;;;;8267400;28;20041;-57
2023/08/26 10:21:08;;;;;;;1.25;0.85;;;;;;;;;;8264934;28;20037;-57
2023/08/26 10:25:09;;;;;;;1.50;0.80;;;;;;;;;;8261046;28;20757;-57
2023/08/26 10:29:10;;;;;;;2.92;0.80;;;;;;;;;;8259727;28;20018;-57
2023/08/26 10:33:10;;;;;;;1.27;0.73;;;;;;;;;;8264782;28;20035;-57
2023/08/26 10:37:10;;;;;;;2.50;0.90;;;;;;;;;;8268193;28;20029;-58
2023/08/26 10:41:11;;;;;;;1.48;0.90;;;;;;;;;;8264445;28;20025;-58
2023/08/26 10:45:13;;;;;;;1.05;0.80;;;;;;;;;;8258408;28;20032;-59
2023/08/26 10:49:13;;;;;;;1.67;0.90;;;;;;;;;;8268904;28;20022;-58
2023/08/26 10:53:14;;;;;;;1.43;0.90;;;;;;;;;;8267780;28;20129;-58
2023/08/26 10:57:15;;;;;;;1.67;0.90;;;;;;;;;;8261711;28;20409;-58
2023/08/26 11:01:15;;;;;;;2.88;1.00;;;;;;;;;;8260776;28;20708;-57
2023/08/26 11:05:16;;;;;;;1.83;0.90;;;;;;;;;;8259310;28;20067;-58
2023/08/26 11:09:18;;;;;;;0.95;0.70;;;;;;;;;;8267683;28;20017;-58
2023/08/26 11:13:20;;;;;;;1.43;0.80;;;;;;;;;;8263900;28;20044;-58
2023/08/26 11:17:21;;;;;;;0.80;0.80;;;;;;;;;;8266931;28;20292;-58
2023/08/26 11:21:22;;;;;;;2.00;1.20;;;;;;;;;;8269630;28;20079;-57
2023/08/26 11:25:22;;;;;;;4.18;0.98;;;;;;;;;;8267864;28;20029;-57
2023/08/26 11:29:22;;;;;;;1.53;0.83;;;;;;;;;;8266034;28;20486;-57
2023/08/26 11:33:23;;;;;;;1.58;0.90;;;;;;;;;;8267802;28;20046;-57
2023/08/26 11:37:23;;;;;;;3.22;1.10;;;;;;;;;;8266709;28;20482;-58
2023/08/26 11:41:24;;;;;;;2.10;1.00;;;;;;;;;;8269681;28;20112;-58
2023/08/26 11:45:24;;;;;;;2.22;1.00;;;;;;;;;;8266431;28;20050;-58
2023/08/26 11:49:25;;;;;;;2.50;1.23;;;;;;;;;;8267167;28;20033;-58
2023/08/26 11:53:25;;;;;;;5.88;1.00;;;;;;;;;;8276879;28;20026;-57
2023/08/26 11:57:25;;;;;;;1.10;0.90;;;;;;;;;;8271977;28;20091;-57
2023/08/26 12:01:25;;;;;;;1.90;1.10;;;;;;;;;;8265861;28;20040;-58
2023/08/26 12:05:26;;;;;;;2.53;1.27;;;;;;;;;;8273493;28;20383;-58
2023/08/26 12:09:26;;;;;;;2.20;1.30;;;;;;;;;;8273353;28;20903;-59
2023/08/26 12:13:36;;;;;;;1.13;1.00;;;;;;;;;;8271090;28;20028;-59
2023/08/26 12:17:45;;;;;;;6.25;1.27;;;;;;;;;;8275699;28;20048;-59
2023/08/26 12:21:48;;;;;;;1.77;1.25;;;;;;;;;;8272286;28;20030;-58
2023/08/26 12:25:48;;;;;;;;;;;;;;;;;;8273537;28;20038;-58
2023/08/26 12:29:49;;;;;;;3.10;1.40;;;;;;;;;;8280646;28;19917;-58
2023/08/26 12:33:49;;;;;;;2.70;1.23;;;;;;;;;;8273211;28;20052;-58
2023/08/26 12:37:50;;;;;;;2.67;1.25;;;;;;;;;;8272821;28;20034;-58
2023/08/26 12:41:53;;;;;;;2.50;1.30;;;;;;;;;;8266227;28;20032;-59
2023/08/26 12:45:54;;;;;;;2.88;1.13;;;;;;;;;;8265885;28;20058;-58
2023/08/26 12:49:56;;;;;;;2.72;1.30;;;;;;;;;;8272112;28;20543;-58
2023/08/26 12:53:56;;;;;;;1.92;1.40;;;;;;;;;;8273054;28;20987;-58
2023/08/26 12:57:56;;;;;;;1.23;1.00;;;;;;;;;;8271376;28;20073;-58
2023/08/26 13:01:56;;;;;;;2.83;1.20;;;;;;;;;;8271352;28;21644;-58
2023/08/26 13:05:57;;;;;;;1.70;1.25;;;;;;;;;;8270558;28;20148;-58
2023/08/26 13:09:57;;;;;;;1.55;1.35;;;;;;;;;;8272089;28;20026;-58
2023/08/26 13:13:58;;;;;;;2.30;1.10;;;;;;;;;;8262829;28;20087;-59
2023/08/26 13:17:58;;;;;;;3.63;1.20;;;;;;;;;;8266508;28;20460;-58
2023/08/26 13:21:58;;;;;;;1.65;1.13;;;;;;;;;;8270435;28;20889;-58
2023/08/26 13:25:59;;;;;;;2.58;1.25;;;;;;;;;;8269092;28;20030;-57
2023/08/26 13:29:59;;;;;;;2.05;1.10;;;;;;;;;;8270653;28;20525;-58
2023/08/26 13:33:59;;;;;;;2.65;1.13;;;;;;;;;;8271588;28;20662;-58
2023/08/26 13:37:59;;;;;;;3.07;1.30;;;;;;;;;;8270610;28;20733;-59
2023/08/26 13:42:00;;;;;;;2.28;1.30;;;;;;;;;;8270120;28;20037;-58
2023/08/26 13:46:00;;;;;;;1.83;1.13;;;;;;;;;;8269055;28;20052;-59
2023/08/26 13:50:01;;;;;;;2.15;1.00;;;;;;;;;;8269611;28;20033;-58
2023/08/26 13:54:01;;;;;;;2.00;1.20;;;;;;;;;;8271492;28;20793;-58
2023/08/26 13:58:01;;;;;;;2.90;1.27;;;;;;;;;;8270502;28;20152;-59
2023/08/26 14:02:02;;;;;;;1.80;1.30;;;;;;;;;;8268386;28;20037;-58
2023/08/26 14:06:06;;;;;;;1.23;1.00;;;;;;;;;;8270490;28;20033;-58
2023/08/26 14:10:06;;;;;;;2.97;1.20;;;;;;;;;;8270113;28;20624;-58
2023/08/26 14:14:06;;;;;;;4.25;1.38;;;;;;;;;;8269059;28;20026;-60
2023/08/26 14:18:07;;;;;;;1.15;1.05;;;;;;;;;;8271016;28;20164;-57
2023/08/26 14:22:07;;;;;;;2.75;1.10;;;;;;;;;;8270224;28;20482;-58
2023/08/26 14:26:07;;;;;;;2.70;1.10;;;;;;;;;;8268516;28;20079;-58
2023/08/26 14:30:08;;;;;;;1.77;1.20;;;;;;;;;;8272902;28;20378;-58
2023/08/26 14:34:09;;;;;;;2.08;1.23;;;;;;;;;;8268096;28;20037;-58
2023/08/26 14:38:10;;;;;;;1.50;1.10;;;;;;;;;;8270945;28;20018;-58
2023/08/26 14:42:10;;;;;;;1.60;1.08;;;;;;;;;;8269923;28;20512;-58
2023/08/26 14:46:10;;;;;;;2.55;1.10;;;;;;;;;;8268026;28;20056;-58
2023/08/26 14:50:10;;;;;;;2.45;1.42;;;;;;;;;;8267844;28;20025;-58
2023/08/26 14:54:11;;;;;;;2.20;1.30;;;;;;;;;;8261716;28;20747;-58
2023/08/26 14:58:11;;;;;;;3.23;1.27;;;;;;;;;;8266617;28;20108;-58
2023/08/26 15:02:13;;;;;;;2.30;1.23;;;;;;;;;;8261024;28;20302;-58
2023/08/26 15:06:13;;;;;;;2.45;1.10;;;;;;;;;;8265469;28;20138;-58
2023/08/26 15:10:14;;;;;;;2.17;1.10;;;;;;;;;;8267447;28;20052;-57
2023/08/26 15:14:14;;;;;;;1.93;1.30;;;;;;;;;;8265703;28;20063;-58
2023/08/26 15:18:15;;;;;;;3.97;1.30;;;;;;;;;;8262697;28;20040;-58
2023/08/26 15:22:15;;;;;;;1.42;1.00;;;;;;;;;;8253289;28;20507;-57
2023/08/26 15:26:18;;;;;;;1.80;1.10;;;;;;;;;;8257258;28;20587;-57
2023/08/26 15:30:20;;;;;;;3.05;1.38;;;;;;;;;;8263418;28;20036;-57
2023/08/26 15:34:21;;;;;;;1.88;1.10;;;;;;;;;;8266912;28;20249;-58
2023/08/26 15:38:22;;;;;;;3.60;1.20;;;;;;;;;;8261023;28;20419;-57
2023/08/26 15:42:22;;;;;;;2.17;1.25;;;;;;;;;;8265936;28;20056;-57
2023/08/26 15:46:22;;;;;;;2.10;1.10;;;;;;;;;;8269213;28;20081;-57
2023/08/26 15:50:22;;;;;;;3.13;1.20;;;;;;;;;;8268240;28;20030;-57
2023/08/26 15:54:23;;;;;;;2.60;1.30;;;;;;;;;;8265695;28;20029;-57
2023/08/26 15:58:23;;;;;;;2.85;1.25;;;;;;;;;;8268766;28;20148;-57
2023/08/26 16:02:23;;;;;;;3.85;1.20;;;;;;;;;;8266454;28;20049;-57
2023/08/26 16:06:23;;;;;;;3.13;1.17;;;;;;;;;;8272686;28;21172;-57
2023/08/26 16:10:23;;;;;;;1.40;1.30;;;;;;;;;;8267619;28;20036;-57
2023/08/26 16:14:24;;;;;;;2.15;1.20;;;;;;;;;;8265746;28;20509;-57
2023/08/26 16:18:24;;;;;;;2.40;1.20;;;;;;;;;;8272786;28;20037;-57
2023/08/26 16:22:24;;;;;;;2.00;1.23;;;;;;;;;;8273878;28;20026;-57
2023/08/26 16:26:25;;;;;;;1.35;1.20;;;;;;;;;;8270388;28;20056;-57
2023/08/26 16:30:25;;;;;;;3.15;1.58;;;;;;;;;;8271757;28;20041;-57
2023/08/26 16:34:25;;;;;;;2.58;1.65;;;;;;;;;;8272696;28;20112;-57
2023/08/26 16:38:26;;;;;;;1.20;1.05;;;;;;;;;;8272410;28;20035;-57
2023/08/26 16:42:26;;;;;;;3.97;1.25;;;;;;;;;;8274654;28;20033;-57
2023/08/26 16:46:26;;;;;;;1.40;1.30;;;;;;;;;;8271004;28;20483;-57
2023/08/26 16:50:28;;;;;;;2.45;1.20;;;;;;;;;;8271618;28;20551;-57
2023/08/26 16:54:28;;;;;;;1.55;1.08;;;;;;;;;;8271190;28;20502;-57
2023/08/26 16:58:28;;;;;;;2.25;1.50;;;;;;;;;;8273711;28;20017;-57
2023/08/26 17:02:29;;;;;;;1.52;1.10;;;;;;;;;;8272808;28;20101;-57
2023/08/26 17:06:29;;;;;;;1.53;1.17;;;;;;;;;;8273423;28;20100;-57
2023/08/26 17:10:29;;;;;;;4.85;1.60;;;;;;;;;;8267681;28;20026;-57
2023/08/26 17:14:30;;;;;;;2.03;1.13;;;;;;;;;;8269412;28;20385;-57
2023/08/26 17:18:31;;;;;;;3.30;1.30;;;;;;;;;;8269557;28;21996;-57
2023/08/26 17:22:31;;;;;;;3.00;1.20;;;;;;;;;;8272194;28;20029;-57
2023/08/26 17:26:31;;;;;;;2.40;1.15;;;;;;;;;;8269480;28;20077;-57
2023/08/26 17:30:31;;;;;;;2.45;1.30;;;;;;;;;;8271553;28;20176;-57
2023/08/26 17:34:32;;;;;;;2.65;1.40;;;;;;;;;;8268778;28;20946;-60
2023/08/26 17:38:32;;;;;;;2.47;1.40;;;;;;;;;;8272845;28;20600;-57
2023/08/26 17:42:32;;;;;;;2.38;1.20;;;;;;;;;;8272775;28;20029;-57
2023/08/26 17:46:32;;;;;;;2.47;1.10;;;;;;;;;;8268080;28;20041;-57
2023/08/26 17:50:32;;;;;;;1.80;1.33;;;;;;;;;;8268384;28;20018;-56
2023/08/26 17:54:32;;;;;;;1.90;1.20;;;;;;;;;;8267260;28;20083;-57
2023/08/26 17:58:33;;;;;;;3.65;1.30;;;;;;;;;;8268859;28;20080;-57
2023/08/26 18:02:33;;;;;;;3.83;1.40;;;;;;;;;;8265194;28;20071;-57
2023/08/26 18:06:33;;;;;;;2.42;1.05;;;;;;;;;;8269917;28;20075;-56
2023/08/26 18:10:34;;;;;;;2.20;1.13;;;;;;;;;;8266280;28;20140;-57
2023/08/26 18:14:34;;;;;;;1.75;1.20;;;;;;;;;;8259466;28;20449;-56
2023/08/26 18:18:35;;;;;;;2.58;1.35;;;;;;;;;;8256316;28;20044;-56
2023/08/26 18:22:35;;;;;;;2.83;1.13;;;;;;;;;;8259551;28;20118;-57
2023/08/26 18:26:35;;;;;;;2.00;1.30;;;;;;;;;;8267301;28;20021;-57
2023/08/26 18:30:35;;;;;;;1.40;1.23;;;;;;;;;;8267815;28;20266;-57
2023/08/26 18:34:36;;;;;;;2.40;1.25;;;;;;;;;;8269993;28;20096;-57
2023/08/26 18:38:36;;;;;;;1.23;1.13;;;;;;;;;;8267087;28;20569;-57
2023/08/26 18:42:36;;;;;;;3.47;1.43;;;;;;;;;;8266548;28;20026;-56
2023/08/26 18:46:37;;;;;;;3.97;1.30;;;;;;;;;;8267885;28;20832;-56
2023/08/26 18:50:37;;;;;;;1.73;1.25;;;;;;;;;;8269206;28;20482;-56
2023/08/26 18:54:38;;;;;;;5.07;1.63;;;;;;;;;;8270381;28;20386;-56
2023/08/26 18:58:38;;;;;;;3.08;1.40;;;;;;;;;;8270937;28;20053;-57
2023/08/26 19:02:38;;;;;;;2.13;1.13;;;;;;;;;;8273986;28;20042;-56
2023/08/26 19:06:38;;;;;;;3.60;1.30;;;;;;;;;;8272273;28;20550;-56
2023/08/26 19:10:41;;;;;;;2.20;1.38;;;;;;;;;;8274433;28;20286;-56
2023/08/26 19:14:41;;;;;;;1.80;1.20;;;;;;;;;;8270458;28;20033;-56
2023/08/26 19:18:42;;;;;;;2.90;1.30;;;;;;;;;;8272856;28;20552;-56
2023/08/26 19:22:42;;;;;;;3.15;1.48;;;;;;;;;;8272067;28;20490;-57
2023/08/26 19:26:43;;;;;;;1.63;1.27;;;;;;;;;;8271663;28;20048;-56
2023/08/26 19:30:45;;;;;;;1.73;1.15;;;;;;;;;;8273270;28;20365;-59
2023/08/26 19:34:45;;;;;;;2.35;1.20;;;;;;;;;;8266302;28;20828;-57
2023/08/26 19:38:46;;;;;;;3.53;1.25;;;;;;;;;;8271131;28;20080;-57
2023/08/26 19:42:46;;;;;;;1.92;1.10;;;;;;;;;;8274112;28;20096;-56
2023/08/26 19:46:46;;;;;;;2.45;1.23;;;;;;;;;;8271230;28;20121;-56
2023/08/26 19:50:46;;;;;;;2.13;1.20;;;;;;;;;;8271595;28;20144;-56
2023/08/26 19:54:46;;;;;;;1.40;1.00;;;;;;;;;;8273288;28;20025;-56
2023/08/26 19:58:47;;;;;;;1.17;0.90;;;;;;;;;;8273806;28;20022;-57
2023/08/26 20:02:47;;;;;;;2.47;0.98;;;;;;;;;;8270757;28;20147;-56
2023/08/26 20:06:47;;;;;;;1.30;0.80;;;;;;;;;;8267516;28;20086;-56
2023/08/26 20:10:48;;;;;;;1.25;0.90;;;;;;;;;;8263117;28;20140;-56
2023/08/26 20:14:49;;;;;;;1.67;0.90;;;;;;;;;;8271692;28;20025;-56
2023/08/26 20:18:49;;;;;;;4.28;1.10;;;;;;;;;;8263365;28;20047;-56
2023/08/26 20:22:50;;;;;;;0.90;0.90;;;;;;;;;;8269784;28;20167;-57
2023/08/26 20:26:50;;;;;;;3.72;1.10;;;;;;;;;;8266509;28;20029;-56
2023/08/26 20:30:57;;;;;;;1.30;1.20;;;;;;;;;;8269997;28;20038;-56
2023/08/26 20:34:57;;;;;;;1.20;0.90;;;;;;;;;;8271482;28;20042;-56
2023/08/26 20:38:57;;;;;;;2.42;0.95;;;;;;;;;;8267541;28;20038;-56
2023/08/26 20:42:57;;;;;;;1.75;1.10;;;;;;;;;;8272526;28;20084;-56
2023/08/26 20:46:57;;;;;;;1.33;0.88;;;;;;;;;;8268592;28;21372;-56
2023/08/26 20:50:58;;;;;;;0.70;0.70;;;;;;;;;;8271654;28;20018;-54
2023/08/26 20:54:58;;;;;;;1.60;1.00;;;;;;;;;;8273215;28;20512;-56
2023/08/26 20:58:58;;;;;;;0.93;0.93;;;;;;;;;;8270267;28;20057;-56
2023/08/26 21:02:58;;;;;;;1.42;0.80;;;;;;;;;;8269090;28;20037;-56
2023/08/26 21:06:59;;;;;;;0.95;0.90;;;;;;;;;;8268064;28;20026;-56
2023/08/26 21:10:59;;;;;;;3.97;0.88;;;;;;;;;;8269537;28;20026;-56
2023/08/26 21:15:00;;;;;;;1.15;0.70;;;;;;;;;;8270486;28;20492;-56
2023/08/26 21:19:00;;;;;;;1.30;0.87;;;;;;;;;;8266831;28;20079;-56
2023/08/26 21:23:00;;;;;;;0.70;0.70;;;;;;;;;;8267648;28;20296;-56
2023/08/26 21:27:02;;;;;;;2.47;0.82;;;;;;;;;;8269130;28;20091;-56
2023/08/26 21:31:06;;;;;;;0.80;0.80;;;;;;;;;;8268798;28;20022;-55
2023/08/26 21:35:06;;;;;;;0.98;0.90;;;;;;;;;;8264994;28;20037;-56
2023/08/26 21:39:07;;;;;;;1.23;0.90;;;;;;;;;;8266938;28;20055;-56
2023/08/26 21:43:11;;;;;;;1.83;0.90;;;;;;;;;;8265169;28;20327;-55
2023/08/26 21:47:11;;;;;;;6.60;1.23;;;;;;;;;;8263671;28;20030;-56
2023/08/26 21:51:11;;;;;;;5.60;1.20;;;;;;;;;;8267666;28;20017;-56
2023/08/26 21:55:13;;;;;;;1.23;1.13;;;;;;;;;;8267973;28;20144;-56
2023/08/26 21:59:13;;;;;;;1.67;1.08;;;;;;;;;;8270671;28;20777;-56
2023/08/26 22:03:13;;;;;;;1.00;0.97;;;;;;;;;;8266533;28;20042;-56
2023/08/26 22:07:13;;;;;;;2.47;1.35;;;;;;;;;;8270780;28;20273;-56
2023/08/26 22:11:13;;;;;;;1.70;1.05;;;;;;;;;;8268142;28;20025;-56
2023/08/26 22:15:14;;;;;;;1.98;1.00;;;;;;;;;;8270748;28;21044;-56
2023/08/26 22:19:14;;;;;;;1.60;1.10;;;;;;;;;;8268623;28;20945;-56
2023/08/26 22:23:14;;;;;;;2.45;1.10;;;;;;;;;;8269777;28;20571;-56
2023/08/26 22:27:14;;;;;;;3.35;1.10;;;;;;;;;;8265955;28;20941;-56
2023/08/26 22:31:15;;;;;;;3.60;1.10;;;;;;;;;;8266063;28;20041;-56
2023/08/26 22:35:15;;;;;;;1.43;0.80;;;;;;;;;;8268752;28;20152;-56
2023/08/26 22:39:15;;;;;;;1.58;1.00;;;;;;;;;;8266719;28;20275;-56
2023/08/26 22:43:15;;;;;;;2.97;1.00;;;;;;;;;;8268734;28;20036;-56
2023/08/26 22:47:15;;;;;;;2.22;1.00;;;;;;;;;;8267333;28;20302;-55
2023/08/26 22:51:16;;;;;;;2.05;1.00;;;;;;;;;;8268859;28;20052;-56
2023/08/26 22:55:16;;;;;;;3.20;0.85;;;;;;;;;;8267210;28;20061;-55
2023/08/26 22:59:17;;;;;;;1.37;0.90;;;;;;;;;;8268345;28;20025;-55
2023/08/26 23:03:17;;;;;;;0.63;0.63;;;;;;;;;;8264686;28;20087;-56
2023/08/26 23:07:17;;;;;;;1.27;0.90;;;;;;;;;;8264973;28;20071;-55
2023/08/26 23:11:17;;;;;;;1.10;0.70;;;;;;;;;;8265172;28;20026;-55
2023/08/26 23:15:17;;;;;;;2.83;0.83;;;;;;;;;;8266604;28;20033;-56
2023/08/26 23:19:18;;;;;;;4.05;0.90;;;;;;;;;;8269375;28;20337;-55
2023/08/26 23:23:18;;;;;;;1.88;0.80;;;;;;;;;;8268612;28;20025;-55
2023/08/26 23:27:19;;;;;;;2.67;0.90;;;;;;;;;;8266069;28;20025;-56
2023/08/26 23:31:19;;;;;;;0.93;0.80;;;;;;;;;;8264891;28;20935;-56
2023/08/26 23:35:19;;;;;;;2.67;0.95;;;;;;;;;;8263401;28;20022;-56
2023/08/26 23:39:20;;;;;;;1.15;0.85;;;;;;;;;;8266602;28;20026;-56
2023/08/26 23:43:20;;;;;;;2.55;0.82;;;;;;;;;;8270298;28;20029;-55
2023/08/26 23:47:20;;;;;;;2.50;0.90;;;;;;;;;;8271505;28;20699;-55
2023/08/26 23:51:20;;;;;;;1.02;0.90;;;;;;;;;;8271788;28;20022;-55
2023/08/26 23:55:20;;;;;;;1.52;0.85;;;;;;;;;;8273247;28;20061;-55
2023/08/26 23:59:20;;;;;;;0.68;0.60;;;;;;;;;;8272178;28;20025;-56
